Anthem Of The Seas — C6BI7 — position and weather

sailwx.info

Track history (hours):
 
Tides and Currents Weather Stations Pressure Air Temp Water Temp Dewpoint Dewpoint Depression Visibility Wind Speed Wind Dir Waves Ship Positions

Anthem Of The Seas

Last reported at 2019-Sep-16 07:03 UTC. Time now 2019-Sep-17 08:53 UTC.
Position N 43°53' W 068°18'.

Length 348 m; draft 8.8 m.

Type: Passenger vessel. MMSI: 311000274.

Date/timePositionNaut miles runAvg speedWind from/ knotsBaromVisibWave heightAir tempDewpointWater temp
2019-Sep-16 07:03N 43°53' W 068°18'49 9.6
2019-Sep-16 02:00N 43°24' W 069°12'48 3.3 310 / 171016.310.8 21.0 15.0
2019-Sep-15 11:23N 43°40' W 070°14'3 7.4
2019-Sep-15 10:57N 43°37' W 070°11'59 7.3
2019-Sep-15 02:50N 42°39' W 070°26'3 8.3
2019-Sep-15 02:28N 42°37' W 070°29'4 8.3
2019-Sep-15 01:59N 42°34' W 070°33'4 8.3
2019-Sep-15 01:30N 42°32' W 070°37'4 8.3
2019-Sep-15 01:00N 42°29' W 070°42'4 8.2
2019-Sep-15 00:31N 42°26' W 070°46'4 8.2
2019-Sep-15 00:00N 42°24' W 070°50'5 8.9
2019-Sep-14 23:28N 42°21' W 070°56'4 8.7
2019-Sep-14 23:00N 42°21' W 071°01'0 0.0
2019-Sep-14 10:28N 42°21' W 071°01'4 7.5
2019-Sep-14 09:56N 42°22' W 070°56'612.1
2019-Sep-14 09:26N 42°25' W 070°48'4 8.7
2019-Sep-14 09:00N 42°23' W 070°44'6210.2
2019-Sep-14 03:00N 41°48' W 069°36'7312.2 130 / 161033.410.8 18.0 18.0
2019-Sep-13 21:00N 40°42' W 068°54'523130.7 050 / 301032.4 16.016.018.0
2019-Sep-13 17:00N 49°24' W 069°36'56533.4 050 / 281032.127.0 18.1 21.8
2019-Sep-13 00:06N 40°24' W 073°29'1 9.6
2019-Sep-13 00:00N 40°24' W 073°30'5 9.4
2019-Sep-12 23:30N 40°25' W 073°36'5 9.0
2019-Sep-12 23:00N 40°25' W 073°42'5 9.1
2019-Sep-12 22:28N 40°26' W 073°48'714.3
2019-Sep-12 22:00N 40°30' W 073°56'612.7
2019-Sep-12 21:30N 40°34' W 074°02'713.1
2019-Sep-12 21:00N 40°41' W 074°02'0 0.2
2019-Sep-12 20:30N 40°41' W 074°02'2 2.8
2019-Sep-12 19:58N 40°40' W 074°04'0 0.0
2019-Sep-12 19:28N 40°40' W 074°04'0 0.0
2019-Sep-12 18:55N 40°40' W 074°04'0 0.0
2019-Sep-12 18:28N 40°40' W 074°04'0 0.0
2019-Sep-12 17:55N 40°40' W 074°04'0 0.0
2019-Sep-12 17:28N 40°40' W 074°04'0 0.0
2019-Sep-12 16:55N 40°40' W 074°04'0 0.0
2019-Sep-12 16:25N 40°40' W 074°04'0 0.0
2019-Sep-12 15:49N 40°40' W 074°04'0 0.0
2019-Sep-12 15:28N 40°40' W 074°04'0 0.0
2019-Sep-12 14:55N 40°40' W 074°04'0 0.0
2019-Sep-12 14:19N 40°40' W 074°04'0 0.0
2019-Sep-12 13:55N 40°40' W 074°04'0 0.0
2019-Sep-12 13:28N 40°40' W 074°04'0 0.0
2019-Sep-12 12:55N 40°40' W 074°04'0 0.0
2019-Sep-12 12:28N 40°40' W 074°04'0 0.0
2019-Sep-12 11:58N 40°40' W 074°04'0 0.0
2019-Sep-12 11:28N 40°40' W 074°04'0 0.0
2019-Sep-12 11:00N 40°40' W 074°04'3 4.4
2019-Sep-12 10:22N 40°37' W 074°03'514.7
2019-Sep-12 10:00N 40°32' W 074°01'816.8
2019-Sep-12 09:30N 40°28' W 073°51'510.7
2019-Sep-12 09:01N 40°25' W 073°45'816.1
2019-Sep-12 08:31N 40°21' W 073°37'1617.1
2019-Sep-12 07:33N 40°11' W 073°20'117.3
2019-Sep-12 07:30N 40°10' W 073°19'917.4
2019-Sep-12 07:00N 40°05' W 073°10'1717.3
2019-Sep-12 05:59N 39°53' W 072°53'10516.7
2019-Sep-11 23:43N 38°36' W 071°22'617.6
2019-Sep-11 23:24N 38°32' W 071°17'5416.6
2019-Sep-11 20:10N 37°52' W 070°31'416.4
2019-Sep-11 19:56N 37°49' W 070°28'716.2
2019-Sep-11 19:30N 37°44' W 070°22'915.0
2019-Sep-11 18:52N 37°37' W 070°14'815.0
2019-Sep-11 18:19N 37°31' W 070°07'22620.0
2019-Sep-11 07:00N 34°42' W 067°00'12020.0 050 / 101023.010.8 26.0 28.0
2019-Sep-11 01:00N 33°12' W 065°24'105 2.2 040 / 91022.310.8 29.0 30.0
2019-Sep-09 01:00N 34°30' W 066°48'33817.8 040 / 191020.310.8 28.0 29.0
2019-Sep-08 06:00N 38°36' W 071°36'6716.7 270 / 291015.510.8 22.0 25.0
2019-Sep-08 02:00N 39°24' W 072°36'4919.4 240 / 301013.310.8 24.0 23.0
2019-Sep-07 23:28N 40°00' W 073°19'1617.5
2019-Sep-07 22:33N 40°12' W 073°33'117.4
2019-Sep-07 22:30N 40°13' W 073°34'1017.4
2019-Sep-07 21:54N 40°21' W 073°42'915.9
2019-Sep-07 21:22N 40°27' W 073°50'514.7
2019-Sep-07 21:00N 40°30' W 073°56'814.9
2019-Sep-07 20:30N 40°36' W 074°02'4 8.5
2019-Sep-07 19:59N 40°40' W 074°04'0 0.0
2019-Sep-07 19:29N 40°40' W 074°04'0 0.0
2019-Sep-07 18:59N 40°40' W 074°04'0 0.0
2019-Sep-07 18:29N 40°40' W 074°04'0 0.0
2019-Sep-07 17:59N 40°40' W 074°04'0 0.0
2019-Sep-07 17:29N 40°40' W 074°04'0 0.0
2019-Sep-07 16:59N 40°40' W 074°04'0 0.0
2019-Sep-07 16:29N 40°40' W 074°04'0 0.0
2019-Sep-07 15:59N 40°40' W 074°04'0 0.0
2019-Sep-07 15:29N 40°40' W 074°04'0 0.0
2019-Sep-07 14:59N 40°40' W 074°04'0 0.0
2019-Sep-07 14:29N 40°40' W 074°04'0 0.0
2019-Sep-07 13:59N 40°40' W 074°04'0 0.0
2019-Sep-07 13:29N 40°40' W 074°04'0 0.0
2019-Sep-07 12:59N 40°40' W 074°04'0 0.0
2019-Sep-07 12:29N 40°40' W 074°04'0 0.0
2019-Sep-07 11:59N 40°40' W 074°04'0 0.0
2019-Sep-07 11:29N 40°40' W 074°04'0 0.0
2019-Sep-07 10:59N 40°40' W 074°04'0 0.0
2019-Sep-07 10:29N 40°40' W 074°04'0 0.0
2019-Sep-07 09:59N 40°40' W 074°04'0 0.0
2019-Sep-07 09:29N 40°40' W 074°04'0 0.0
2019-Sep-07 08:59N 40°40' W 074°04'0 0.0
2019-Sep-07 08:29N 40°40' W 074°04'0 0.0
2019-Sep-07 07:59N 40°40' W 074°04'0 0.0
2019-Sep-07 07:29N 40°40' W 074°04'0 0.0
2019-Sep-07 06:59N 40°40' W 074°04'0 0.0
2019-Sep-07 06:29N 40°40' W 074°04'0 0.0
2019-Sep-07 05:59N 40°40' W 074°04'0 0.0
2019-Sep-07 05:29N 40°40' W 074°04'0 0.0
2019-Sep-07 04:59N 40°40' W 074°04'0 0.0
2019-Sep-07 04:29N 40°40' W 074°04'0 0.0
2019-Sep-07 03:59N 40°40' W 074°04'0 0.0
2019-Sep-07 03:29N 40°40' W 074°04'0 0.6
2019-Sep-07 03:00N 40°40' W 074°04'2 4.2
2019-Sep-07 02:30N 40°41' W 074°02'3 5.4
2019-Sep-07 02:00N 40°44' W 074°01'4 7.5
2019-Sep-07 01:30N 40°40' W 074°03'611.5
2019-Sep-07 01:01N 40°35' W 074°02'713.5
2019-Sep-07 00:31N 40°30' W 073°56'713.0
2019-Sep-07 00:00N 40°28' W 073°48'611.4
2019-Sep-06 23:30N 40°27' W 073°40'815.3
2019-Sep-06 22:58N 40°28' W 073°30'27919.5
2019-Sep-06 08:37N 41°16' W 067°26'3021.6
2019-Sep-06 07:13N 41°35' W 066°54'  
Track history (hours):
 
Tides and Currents Weather Stations Pressure Air Temp Water Temp Dewpoint Dewpoint Depression Visibility Wind Speed Wind Dir Waves Ship Positions

Anthem Of The Seas

Last reported at 2019-Sep-16 07:03 UTC. Time now 2019-Sep-17 08:53 UTC.
Position N 43°53' W 068°18'.

Length 348 m; draft 8.8 m.

Type: Passenger vessel. MMSI: 311000274.

Date/timePositionNaut miles runAvg speedWind from/ knotsBaromVisibWave heightAir tempDewpointWater temp
2019-Sep-16 07:03N 43°53' W 068°18'49 9.6
2019-Sep-16 02:00N 43°24' W 069°12'48 3.3 310 / 171016.310.8 21.0 15.0
2019-Sep-15 11:23N 43°40' W 070°14'3 7.4
2019-Sep-15 10:57N 43°37' W 070°11'59 7.3
2019-Sep-15 02:50N 42°39' W 070°26'3 8.3
2019-Sep-15 02:28N 42°37' W 070°29'4 8.3
2019-Sep-15 01:59N 42°34' W 070°33'4 8.3
2019-Sep-15 01:30N 42°32' W 070°37'4 8.3
2019-Sep-15 01:00N 42°29' W 070°42'4 8.2
2019-Sep-15 00:31N 42°26' W 070°46'4 8.2
2019-Sep-15 00:00N 42°24' W 070°50'5 8.9
2019-Sep-14 23:28N 42°21' W 070°56'4 8.7
2019-Sep-14 23:00N 42°21' W 071°01'0 0.0
2019-Sep-14 10:28N 42°21' W 071°01'4 7.5
2019-Sep-14 09:56N 42°22' W 070°56'612.1
2019-Sep-14 09:26N 42°25' W 070°48'4 8.7
2019-Sep-14 09:00N 42°23' W 070°44'6210.2
2019-Sep-14 03:00N 41°48' W 069°36'7312.2 130 / 161033.410.8 18.0 18.0
2019-Sep-13 21:00N 40°42' W 068°54'523130.7 050 / 301032.4 16.016.018.0
2019-Sep-13 17:00N 49°24' W 069°36'56533.4 050 / 281032.127.0 18.1 21.8
2019-Sep-13 00:06N 40°24' W 073°29'1 9.6
2019-Sep-13 00:00N 40°24' W 073°30'5 9.4
2019-Sep-12 23:30N 40°25' W 073°36'5 9.0
2019-Sep-12 23:00N 40°25' W 073°42'5 9.1
2019-Sep-12 22:28N 40°26' W 073°48'714.3
2019-Sep-12 22:00N 40°30' W 073°56'612.7
2019-Sep-12 21:30N 40°34' W 074°02'713.1
2019-Sep-12 21:00N 40°41' W 074°02'0 0.2
2019-Sep-12 20:30N 40°41' W 074°02'2 2.8
2019-Sep-12 19:58N 40°40' W 074°04'0 0.0
2019-Sep-12 19:28N 40°40' W 074°04'0 0.0
2019-Sep-12 18:55N 40°40' W 074°04'0 0.0
2019-Sep-12 18:28N 40°40' W 074°04'0 0.0
2019-Sep-12 17:55N 40°40' W 074°04'0 0.0
2019-Sep-12 17:28N 40°40' W 074°04'0 0.0
2019-Sep-12 16:55N 40°40' W 074°04'0 0.0
2019-Sep-12 16:25N 40°40' W 074°04'0 0.0
2019-Sep-12 15:49N 40°40' W 074°04'0 0.0
2019-Sep-12 15:28N 40°40' W 074°04'0 0.0
2019-Sep-12 14:55N 40°40' W 074°04'0 0.0
2019-Sep-12 14:19N 40°40' W 074°04'0 0.0
2019-Sep-12 13:55N 40°40' W 074°04'0 0.0
2019-Sep-12 13:28N 40°40' W 074°04'0 0.0
2019-Sep-12 12:55N 40°40' W 074°04'0 0.0
2019-Sep-12 12:28N 40°40' W 074°04'0 0.0
2019-Sep-12 11:58N 40°40' W 074°04'0 0.0
2019-Sep-12 11:28N 40°40' W 074°04'0 0.0
2019-Sep-12 11:00N 40°40' W 074°04'3 4.4
2019-Sep-12 10:22N 40°37' W 074°03'514.7
2019-Sep-12 10:00N 40°32' W 074°01'816.8
2019-Sep-12 09:30N 40°28' W 073°51'510.7
2019-Sep-12 09:01N 40°25' W 073°45'816.1
2019-Sep-12 08:31N 40°21' W 073°37'1617.1
2019-Sep-12 07:33N 40°11' W 073°20'117.3
2019-Sep-12 07:30N 40°10' W 073°19'917.4
2019-Sep-12 07:00N 40°05' W 073°10'1717.3
2019-Sep-12 05:59N 39°53' W 072°53'10516.7
2019-Sep-11 23:43N 38°36' W 071°22'617.6
2019-Sep-11 23:24N 38°32' W 071°17'5416.6
2019-Sep-11 20:10N 37°52' W 070°31'416.4
2019-Sep-11 19:56N 37°49' W 070°28'716.2
2019-Sep-11 19:30N 37°44' W 070°22'915.0
2019-Sep-11 18:52N 37°37' W 070°14'815.0
2019-Sep-11 18:19N 37°31' W 070°07'22620.0
2019-Sep-11 07:00N 34°42' W 067°00'12020.0 050 / 101023.010.8 26.0 28.0
2019-Sep-11 01:00N 33°12' W 065°24'105 2.2 040 / 91022.310.8 29.0 30.0
2019-Sep-09 01:00N 34°30' W 066°48'33817.8 040 / 191020.310.8 28.0 29.0
2019-Sep-08 06:00N 38°36' W 071°36'6716.7 270 / 291015.510.8 22.0 25.0
2019-Sep-08 02:00N 39°24' W 072°36'4919.4 240 / 301013.310.8 24.0 23.0
2019-Sep-07 23:28N 40°00' W 073°19'1617.5
2019-Sep-07 22:33N 40°12' W 073°33'117.4
2019-Sep-07 22:30N 40°13' W 073°34'1017.4
2019-Sep-07 21:54N 40°21' W 073°42'915.9
2019-Sep-07 21:22N 40°27' W 073°50'514.7
2019-Sep-07 21:00N 40°30' W 073°56'814.9
2019-Sep-07 20:30N 40°36' W 074°02'4 8.5
2019-Sep-07 19:59N 40°40' W 074°04'0 0.0
2019-Sep-07 19:29N 40°40' W 074°04'0 0.0
2019-Sep-07 18:59N 40°40' W 074°04'0 0.0
2019-Sep-07 18:29N 40°40' W 074°04'0 0.0
2019-Sep-07 17:59N 40°40' W 074°04'0 0.0
2019-Sep-07 17:29N 40°40' W 074°04'0 0.0
2019-Sep-07 16:59N 40°40' W 074°04'0 0.0
2019-Sep-07 16:29N 40°40' W 074°04'0 0.0
2019-Sep-07 15:59N 40°40' W 074°04'0 0.0
2019-Sep-07 15:29N 40°40' W 074°04'0 0.0
2019-Sep-07 14:59N 40°40' W 074°04'0 0.0
2019-Sep-07 14:29N 40°40' W 074°04'0 0.0
2019-Sep-07 13:59N 40°40' W 074°04'0 0.0
2019-Sep-07 13:29N 40°40' W 074°04'0 0.0
2019-Sep-07 12:59N 40°40' W 074°04'0 0.0
2019-Sep-07 12:29N 40°40' W 074°04'0 0.0
2019-Sep-07 11:59N 40°40' W 074°04'0 0.0
2019-Sep-07 11:29N 40°40' W 074°04'0 0.0
2019-Sep-07 10:59N 40°40' W 074°04'0 0.0
2019-Sep-07 10:29N 40°40' W 074°04'0 0.0
2019-Sep-07 09:59N 40°40' W 074°04'0 0.0
2019-Sep-07 09:29N 40°40' W 074°04'0 0.0
2019-Sep-07 08:59N 40°40' W 074°04'0 0.0
2019-Sep-07 08:29N 40°40' W 074°04'0 0.0
2019-Sep-07 07:59N 40°40' W 074°04'0 0.0
2019-Sep-07 07:29N 40°40' W 074°04'0 0.0
2019-Sep-07 06:59N 40°40' W 074°04'0 0.0
2019-Sep-07 06:29N 40°40' W 074°04'0 0.0
2019-Sep-07 05:59N 40°40' W 074°04'0 0.0
2019-Sep-07 05:29N 40°40' W 074°04'0 0.0
2019-Sep-07 04:59N 40°40' W 074°04'0 0.0
2019-Sep-07 04:29N 40°40' W 074°04'0 0.0
2019-Sep-07 03:59N 40°40' W 074°04'0 0.0
2019-Sep-07 03:29N 40°40' W 074°04'0 0.6
2019-Sep-07 03:00N 40°40' W 074°04'2 4.2
2019-Sep-07 02:30N 40°41' W 074°02'3 5.4
2019-Sep-07 02:00N 40°44' W 074°01'4 7.5
2019-Sep-07 01:30N 40°40' W 074°03'611.5
2019-Sep-07 01:01N 40°35' W 074°02'713.5
2019-Sep-07 00:31N 40°30' W 073°56'713.0
2019-Sep-07 00:00N 40°28' W 073°48'611.4
2019-Sep-06 23:30N 40°27' W 073°40'815.3
2019-Sep-06 22:58N 40°28' W 073°30'27919.5
2019-Sep-06 08:37N 41°16' W 067°26'3021.6
2019-Sep-06 07:13N 41°35' W 066°54'  

Dump ship's entire track history